Latest Weather Observations for Bathurst Airport

IDN60801

Issued at 12:02 pm EST Friday 28 August 2015 (issued every 30 minutes, with the page automatically refreshed every 10 minutes)

About weather observations | Map of weather stations | Latest weather observations for NSW | Other Formats
Station Details ID: 063291 Name: BATHURST AIRPORT AWS Lat: -33.41 Lon: 149.65 Height: 744.5 m
Data from the previous 72 hours. | See also: Recent months at Bathurst Airport
Date/Time
EST
Temp
°C
App
Temp
°C
Dew
Point
Rel
Hum
%
Delta-T
°C
Wind Press
QNH
hPa
Press
MSL
hPa
Rain
since 9 am
mm
Dir
 
Spd
km/h
Gust
km/h
Spd
kts
Gust
kts
28/12:00pm 9.2 4.7 4.2 71 2.3 WSW 17 17 9 9 1022.0 1022.6 -
28/11:30am 9.1 5.0 4.3 72 2.2 W 15 20 8 11 1022.3 1022.9 0.0
28/11:00am 8.7 4.2 4.3 74 2.0 W 17 22 9 12 1022.6 1023.2 0.0
28/10:42am 8.3 4.0 5.1 80 1.5 WSW 17 22 9 12 1022.7 1023.3 0.0
28/10:30am 8.0 3.9 6.1 88 0.9 WSW 17 22 9 12 1022.8 1023.5 0.0
28/10:08am 7.9 3.5 5.0 82 1.3 WSW 17 22 9 12 1022.5 1023.1 0.0
28/10:00am 8.1 3.8 5.2 82 1.3 WSW 17 22 9 12 1022.5 1023.1 0.0
28/09:51am 8.2 4.1 6.0 86 1.0 SW 17 20 9 11 1022.4 1023.0 0.0
28/09:32am 7.5 2.5 4.8 83 1.2 WSW 20 26 11 14 1022.4 1023.0 0.0
28/09:30am 7.7 2.8 5.3 85 1.1 WSW 20 26 11 14 1022.4 1023.0 0.0
28/09:00am 7.3 2.5 5.6 89 0.8 WSW 20 24 11 13 1022.2 1022.8 2.8
28/08:30am 6.7 3.6 5.5 92 0.6 SW 11 15 6 8 1022.0 1022.6 2.8
28/08:01am 6.5 3.3 5.1 91 0.6 WSW 11 15 6 8 1021.6 1022.3 2.8
28/08:00am 6.5 3.3 5.1 91 0.6 WSW 11 15 6 8 1021.6 1022.3 2.8
28/07:30am 6.2 3.5 5.5 95 0.3 WSW 9 13 5 7 1021.1 1021.7 2.8
28/07:00am 5.9 1.5 4.9 93 0.5 W 17 22 9 12 1021.0 1021.6 2.8
28/06:59am 5.9 1.5 4.9 93 0.5 W 17 22 9 12 1021.0 1021.6 2.8
28/06:33am 5.8 1.5 5.1 95 0.3 W 17 20 9 11 1020.9 1021.5 2.8
28/06:30am 5.8 1.4 4.9 94 0.4 W 17 20 9 11 1020.9 1021.5 2.8
28/06:00am 5.7 1.7 4.7 93 0.5 WSW 15 20 8 11 1020.4 1020.9 2.8
28/05:45am 5.9 1.5 4.9 93 0.5 W 17 22 9 12 1020.1 1020.7 2.8
28/05:30am 6.0 1.1 5.0 93 0.5 WSW 20 26 11 14 1020.2 1020.8 2.8
28/05:00am 6.0 2.0 5.1 94 0.4 WSW 15 19 8 10 1019.9 1020.5 2.8
28/04:30am 5.9 2.7 5.2 95 0.3 WSW 11 15 6 8 1019.8 1020.4 2.8
28/04:13am 5.9 2.3 5.0 94 0.4 WSW 13 15 7 8 1019.8 1020.4 2.8
28/04:00am 5.9 1.9 4.9 93 0.5 WSW 15 19 8 10 1019.8 1020.4 2.8
28/03:42am 6.0 1.3 5.0 93 0.5 W 19 26 10 14 1019.8 1020.4 2.8
28/03:30am 6.0 1.7 5.1 94 0.4 W 17 22 9 12 1019.8 1020.4 2.8
28/03:00am 6.1 2.1 5.1 93 0.5 WSW 15 20 8 11 1019.7 1020.3 2.8
28/02:40am 6.2 2.7 5.3 94 0.4 WSW 13 19 7 10 1019.9 1020.5 2.8
28/02:30am 6.1 2.5 4.9 92 0.5 W 13 17 7 9 1019.9 1020.5 2.8
28/02:00am 6.0 2.6 5.7 98 0.1 W 13 17 7 9 1020.2 1020.8 2.8
28/01:30am 5.8 3.1 5.7 99 0.0 WNW 9 13 5 7 1020.4 1020.9 2.8
28/01:00am 5.6 2.5 5.5 99 0.0 NW 11 15 6 8 1020.4 1020.9 2.8
28/12:56am 5.6 2.5 5.5 99 0.0 NW 11 15 6 8 1020.4 1020.9 2.8
28/12:30am 5.5 2.4 5.4 99 0.0 NW 11 13 6 7 1020.5 1021.1 2.8
28/12:17am 5.4 3.0 5.3 99 0.0 NNE 7 9 4 5 1020.4 1020.9 2.8
28/12:00am 5.3 2.9 5.2 99 0.0 NE 7 9 4 5 1020.4 1020.9 2.8
 
Date/Time
EST
Temp
°C
App
Temp
°C
Dew
Point
Rel
Hum
%
Delta-T
°C
Wind Press
QNH
hPa
Press
MSL
hPa
Rain
since 9 am
mm
Dir
 
Spd
km/h
Gust
km/h
Spd
kts
Gust
kts
27/11:30pm 4.8 3.2 4.7 99 0.0 WNW 2 6 1 3 1020.5 1021.1 2.8
27/11:00pm 4.5 1.6 4.4 99 0.0 W 9 13 5 7 1020.6 1021.2 2.8
27/10:30pm 4.7 1.0 4.6 99 0.0 NW 13 13 7 7 1020.7 1021.3 2.8
27/10:17pm 5.0 2.5 4.9 99 0.0 NW 7 11 4 6 1020.6 1021.2 2.8
27/10:00pm 5.3 3.8 5.2 99 0.0 NNW 2 7 1 4 1020.7 1021.3 2.8
27/09:30pm 5.0 1.8 4.9 99 0.0 NNW 11 15 6 8 1020.6 1021.2 2.8
27/09:14pm 4.2 0.8 4.1 99 0.0 N 11 13 6 7 1020.7 1021.3 2.8
27/09:00pm 4.6 1.7 4.5 99 0.0 N 9 11 5 6 1020.8 1021.4 2.8
27/08:30pm 5.1 3.6 5.0 99 0.0 WNW 2 7 1 4 1020.6 1021.2 2.8
27/08:00pm 4.9 2.4 4.8 99 0.0 W 7 9 4 5 1020.5 1021.1 2.8
27/07:30pm 5.9 1.6 5.3 96 0.3 WSW 17 19 9 10 1020.5 1021.1 2.8
27/07:12pm 6.5 2.3 5.8 95 0.3 SW 17 20 9 11 1020.2 1020.8 2.8
27/07:00pm 6.9 3.5 6.0 94 0.4 W 13 20 7 11 1020.0 1020.6 2.8
27/06:58pm 7.0 4.1 6.7 98 0.1 W 11 20 6 11 1020.0 1020.6 2.8
27/06:30pm 6.9 4.8 6.8 99 0.0 N 7 7 4 4 1019.7 1020.3 2.8
27/06:00pm 6.8 4.3 6.7 99 0.0 N 9 11 5 6 1019.7 1020.3 2.8
27/05:30pm 6.9 6.0 6.0 94 0.4 CALM 0 0 0 0 1019.3 1019.9 2.8
27/05:00pm 7.7 7.1 7.6 99 0.0 CALM 0 0 0 0 1019.1 1019.6 2.8
27/04:30pm 6.9 4.1 6.8 99 0.0 WSW 11 17 6 9 1019.0 1019.5 2.6
27/04:12pm 7.0 2.5 6.9 99 0.0 WSW 20 28 11 15 1018.9 1019.4 1.6
27/04:00pm 7.2 2.3 7.1 99 0.0 WSW 22 30 12 16 1018.9 1019.4 1.2
27/03:50pm 7.4 2.2 7.1 98 0.1 WSW 24 32 13 17 1018.9 1019.4 0.8
27/03:30pm 8.0 0.5 6.5 90 0.7 SW 35 44 19 24 1018.4 1019.0 0.6
27/03:00pm 11.6 6.3 8.3 80 1.7 NNW 26 30 14 16 1017.7 1018.2 0.6
27/02:30pm 11.7 8.8 8.2 79 1.8 WNW 13 17 7 9 1017.9 1018.4 0.6
27/02:00pm 10.0 5.8 8.4 90 0.8 WNW 20 26 11 14 1018.2 1018.8 0.6
27/01:30pm 12.2 7.8 6.7 69 2.7 NW 19 24 10 13 1018.1 1018.6 0.0
27/01:00pm 12.3 8.0 7.2 71 2.6 NNW 19 26 10 14 1018.6 1019.2 0.0
27/12:30pm 12.7 8.3 7.2 69 2.8 NW 20 26 11 14 1019.3 1019.9 0.0
27/12:00pm 11.7 7.3 6.4 70 2.6 NW 19 26 10 14 1019.6 1020.2 0.0
27/11:30am 11.5 7.4 8.5 82 1.5 NW 20 24 11 13 1020.1 1020.7 0.0
27/11:00am 11.0 6.2 7.5 79 1.8 WNW 22 28 12 15 1020.5 1021.1 0.0
27/10:30am 11.7 7.2 8.7 82 1.6 NNW 22 26 12 14 1020.5 1021.1 0.0
27/10:28am 11.8 7.4 8.8 82 1.6 NNW 22 26 12 14 1020.5 1021.1 0.0
27/10:00am 11.4 7.2 8.4 82 1.5 NW 20 24 11 13 1020.7 1021.3 0.0
27/09:47am 11.6 8.0 9.7 88 1.0 NW 19 24 10 13 1020.7 1021.3 0.0
27/09:35am 11.7 7.8 9.6 87 1.1 NNW 20 24 11 13 1020.8 1021.4 0.0
27/09:30am 11.6 7.9 10.0 90 0.8 NNW 20 26 11 14 1020.8 1021.4 0.0
27/09:19am 11.4 8.3 10.3 93 0.6 NW 17 20 9 11 1020.9 1021.5 0.0
27/09:09am 10.7 7.0 9.5 92 0.6 NW 19 24 10 13 1021.1 1021.7 0.0
27/09:00am 10.6 7.0 9.7 94 0.5 NW 19 24 10 13 1021.2 1021.8 0.8
27/08:30am 10.3 8.0 10.3 100 0.0 NNW 13 20 7 11 1021.3 1021.9 0.8
27/08:17am 10.0 7.2 10.0 100 0.0 NNW 15 17 8 9 1021.3 1021.9 0.8
27/08:00am 9.7 7.2 9.7 100 0.0 NNW 13 17 7 9 1021.1 1021.7 0.8
27/07:30am 9.3 7.1 9.3 100 0.0 N 11 13 6 7 1020.7 1021.3 0.8
27/07:22am 9.3 7.1 9.3 100 0.0 N 11 13 6 7 1020.6 1021.2 0.8
27/07:00am 9.2 6.6 9.2 100 0.0 NNW 13 15 7 8 1020.2 1020.8 0.8
27/06:44am 9.2 7.0 9.2 100 0.0 NNW 11 15 6 8 1020.1 1020.7 0.8
27/06:31am 9.1 6.8 9.1 100 0.0 N 11 13 6 7 1019.9 1020.5 0.8
27/06:30am 9.1 6.8 9.1 100 0.0 N 11 13 6 7 1019.9 1020.5 0.8
27/06:00am 9.3 7.1 9.3 100 0.0 NNE 11 13 6 7 1019.7 1020.3 0.8
27/05:30am 9.5 7.7 9.5 100 0.0 NNW 9 11 5 6 1020.0 1020.6 0.8
27/05:00am 9.5 6.9 9.5 100 0.0 N 13 15 7 8 1019.9 1020.5 0.8
27/04:30am 9.5 7.3 9.5 100 0.0 N 11 13 6 7 1019.8 1020.4 0.8
27/04:00am 9.6 7.1 9.6 100 0.0 N 13 15 7 8 1019.7 1020.3 0.8
27/03:30am 9.7 7.2 9.7 100 0.0 NNW 13 15 7 8 1019.8 1020.4 0.8
27/03:00am 9.9 7.8 9.9 100 0.0 NNW 11 13 6 7 1019.7 1020.3 0.8
27/02:30am 10.0 7.6 10.0 100 0.0 NNW 13 15 7 8 1019.5 1020.1 0.8
27/02:00am 10.1 7.7 10.1 100 0.0 N 13 17 7 9 1020.2 1020.8 0.8
27/01:55am 10.1 7.7 10.1 100 0.0 N 13 17 7 9 1020.2 1020.8 0.6
27/01:39am 10.2 8.6 10.2 100 0.0 N 9 11 5 6 1020.2 1020.8 0.6
27/01:30am 10.2 8.6 10.2 100 0.0 N 9 13 5 7 1020.5 1021.1 0.4
27/01:00am 10.2 9.0 10.2 100 0.0 N 7 9 4 5 1020.6 1021.2 0.4
27/12:30am 10.3 8.7 10.3 100 0.0 N 9 11 5 6 1020.8 1021.4 0.4
27/12:27am 10.3 9.1 10.3 100 0.0 N 7 9 4 5 1020.8 1021.4 0.4
27/12:07am 10.5 9.0 10.5 100 0.0 N 9 11 5 6 1021.0 1021.6 0.2
27/12:06am 10.5 9.0 10.5 100 0.0 N 9 11 5 6 1021.0 1021.6 0.2
27/12:00am 10.5 8.6 10.5 100 0.0 N 11 13 6 7 1021.1 1021.7 0.2
 
Date/Time
EST
Temp
°C
App
Temp
°C
Dew
Point
Rel
Hum
%
Delta-T
°C
Wind Press
QNH
hPa
Press
MSL
hPa
Rain
since 9 am
mm
Dir
 
Spd
km/h
Gust
km/h
Spd
kts
Gust
kts
26/11:45pm 10.6 9.1 10.6 100 0.0 NNE 9 15 5 8 1021.3 1021.9 0.2
26/11:30pm 10.6 10.8 10.6 100 0.0 CALM 0 0 0 0 1021.5 1022.1 0.2
26/11:00pm 10.6 10.8 10.6 100 0.0 CALM 0 0 0 0 1021.6 1022.3 0.2
26/10:47pm 10.5 10.7 10.5 100 0.0 CALM 0 0 0 0 1021.8 1022.4 0.2
26/10:41pm 10.5 10.7 10.5 100 0.0 CALM 0 0 0 0 1021.9 1022.5 0.2
26/10:30pm 10.6 10.8 10.6 100 0.0 CALM 0 6 0 3 1022.0 1022.6 0.2
26/10:24pm 10.6 10.1 10.6 100 0.0 NNW 4 6 2 3 1022.1 1022.7 0.2
26/10:14pm 10.7 9.6 10.7 100 0.0 NNW 7 7 4 4 1022.2 1022.8 0.2
26/10:04pm 10.7 9.6 10.7 100 0.0 N 7 9 4 5 1022.3 1022.9 0.2
26/10:00pm 10.7 9.2 10.7 100 0.0 N 9 11 5 6 1022.3 1022.9 0.2
26/09:30pm 10.7 9.8 10.7 100 0.0 NNE 6 7 3 4 1022.3 1022.9 0.2
26/09:00pm 10.8 11.1 10.8 100 0.0 CALM 0 0 0 0 1022.3 1022.9 0.0
26/08:30pm 10.9 10.1 10.9 100 0.0 NNE 6 7 3 4 1022.3 1022.9 0.0
26/08:00pm 11.0 10.0 11.0 100 0.0 ENE 7 9 4 5 1022.1 1022.7 0.0
26/07:30pm 11.0 9.6 11.0 100 0.0 N 9 11 5 6 1022.0 1022.6 0.0
26/07:00pm 11.2 9.8 11.0 99 0.1 NNE 9 11 5 6 1021.4 1022.0 0.0
26/06:30pm 11.7 10.1 11.4 98 0.2 NNE 11 11 6 6 1021.3 1021.9 0.0
26/06:25pm 11.7 10.1 11.4 98 0.2 NE 11 13 6 7 1021.2 1021.8 0.0
26/06:09pm 11.8 9.2 10.7 93 0.6 NE 15 19 8 10 1021.2 1021.8 0.0
26/06:00pm 12.7 11.0 11.3 91 0.8 ENE 11 13 6 7 1021.1 1021.7 0.0
26/05:30pm 12.8 12.8 11.0 89 1.0 NNE 2 7 1 4 1021.0 1021.6 0.0
26/05:00pm 13.3 13.0 10.1 81 1.7 ESE 2 7 1 4 1020.6 1021.2 0.0
26/04:30pm 13.8 14.0 10.6 81 1.7 CALM 0 0 0 0 1020.2 1020.8 0.0
26/04:00pm 13.8 13.9 10.2 79 1.9 CALM 0 0 0 0 1019.8 1020.4 0.0
26/03:30pm 13.7 12.3 11.0 84 1.5 NE 9 11 5 6 1019.7 1020.3 0.0
26/03:00pm 13.9 12.7 11.6 86 1.3 NNW 9 13 5 7 1019.5 1020.1 0.0
26/02:46pm 13.8 13.3 10.6 81 1.7 W 4 9 2 5 1019.5 1020.1 0.0
26/02:33pm 13.2 11.7 10.6 84 1.4 S 9 13 5 7 1019.7 1020.3 0.0
26/02:30pm 13.3 11.3 10.3 82 1.6 S 11 13 6 7 1019.7 1020.3 0.0
26/02:00pm 14.9 13.3 8.8 67 3.2 WSW 7 11 4 6 1019.5 1020.1 0.0
26/01:30pm 15.2 15.0 9.1 67 3.2 CALM 0 0 0 0 1019.5 1020.1 0.0
26/01:00pm 15.1 13.6 9.2 68 3.1 SE 7 13 4 7 1019.7 1020.3 0.0
26/12:30pm 14.8 12.7 9.6 71 2.8 SSE 11 17 6 9 1019.7 1020.3 0.0
26/12:00pm 14.4 12.7 9.8 74 2.5 SSE 9 17 5 9 1019.9 1020.5 0.0
26/11:30am 14.0 13.3 10.2 78 2.1 SSW 4 11 2 6 1020.6 1021.2 0.0
26/11:00am 13.2 12.3 9.3 77 2.1 NNE 4 9 2 5 1021.0 1021.6 0.0
26/10:30am 11.8 11.4 8.3 79 1.8 CALM 0 0 0 0 1021.2 1021.8 0.0
26/10:23am 11.8 10.7 8.6 81 1.7 WSW 4 13 2 7 1021.2 1021.8 0.0
26/10:00am 11.4 9.9 8.6 83 1.4 NW 6 11 3 6 1021.2 1021.8 0.0
26/09:30am 10.8 9.3 9.1 89 0.9 NNW 7 11 4 6 1021.0 1021.6 0.0
26/09:00am 9.4 8.3 8.3 93 0.6 NE 4 9 2 5 1020.7 1021.3 7.0
26/08:30am 8.7 7.9 8.3 97 0.2 ENE 2 7 1 4 1020.7 1021.3 7.0
26/08:00am 7.9 6.6 7.8 99 0.0 SW 4 7 2 4 1020.4 1020.9 7.0
26/07:30am 7.4 5.4 7.3 99 0.0 WSW 7 9 4 5 1020.2 1020.8 7.0
26/07:00am 7.2 4.8 7.1 99 0.0 WSW 9 11 5 6 1019.9 1020.5 7.0
26/06:30am 7.2 4.8 7.1 99 0.0 WSW 9 9 5 5 1019.7 1020.3 7.0
26/06:00am 7.1 4.7 7.0 99 0.0 W 9 11 5 6 1019.5 1020.1 7.0
26/05:30am 7.1 4.7 7.0 99 0.0 W 9 11 5 6 1019.3 1019.9 7.0
26/05:00am 7.2 4.4 7.1 99 0.0 W 11 13 6 7 1019.0 1019.5 7.0
26/04:30am 7.3 4.1 7.0 98 0.1 WSW 13 15 7 8 1018.7 1019.3 7.0
26/04:00am 7.2 4.0 6.9 98 0.1 WSW 13 17 7 9 1018.5 1019.1 7.0
26/03:30am 7.2 3.3 6.9 98 0.1 SW 17 20 9 11 1018.4 1019.0 7.0
26/03:00am 7.2 4.1 7.1 99 0.0 WSW 13 17 7 9 1018.6 1019.2 7.0
26/02:30am 7.3 4.6 7.2 99 0.0 WSW 11 13 6 7 1018.9 1019.4 7.0
26/02:00am 7.3 4.5 6.9 97 0.2 WSW 11 13 6 7 1018.9 1019.4 7.0
26/01:30am 7.2 3.9 6.6 96 0.3 WSW 13 17 7 9 1019.2 1019.7 7.0
26/01:00am 7.3 2.8 6.2 93 0.5 SW 19 24 10 13 1019.2 1019.7 7.0
26/12:33am 7.4 2.7 6.0 91 0.7 WSW 20 26 11 14 1019.2 1019.7 7.0
26/12:30am 7.4 2.7 6.0 91 0.7 WSW 20 26 11 14 1019.2 1019.7 7.0
26/12:00am 7.5 2.4 6.0 90 0.7 WSW 22 33 12 18 1019.4 1020.0 7.0
 
Date/Time
EST
Temp
°C
App
Temp
°C
Dew
Point
Rel
Hum
%
Delta-T
°C
Wind Press
QNH
hPa
Press
MSL
hPa
Rain
since 9 am
mm
Dir
 
Spd
km/h
Gust
km/h
Spd
kts
Gust
kts
25/11:30pm 7.7 2.2 5.8 88 0.9 SW 24 32 13 17 1019.4 1020.0 7.0
25/11:00pm 8.0 1.8 6.0 87 0.9 SW 28 35 15 19 1019.6 1020.2 7.0
25/10:30pm 8.0 2.5 6.0 87 0.9 SW 24 32 13 17 1019.8 1020.4 7.0
25/10:00pm 8.1 0.5 5.9 86 1.0 SSW 35 44 19 24 1019.7 1020.3 7.0
25/09:52pm 8.1 2.3 6.2 88 0.9 SSW 26 44 14 24 1019.5 1020.1 7.0
25/09:30pm 7.7 4.6 7.4 98 0.1 SSW 13 24 7 13 1019.7 1020.3 6.2
25/09:00pm 8.0 4.5 7.2 95 0.4 SSW 15 28 8 15 1019.7 1020.3 4.8
25/08:30pm 8.5 5.9 7.6 94 0.4 SW 11 15 6 8 1019.7 1020.3 4.8
25/08:00pm 8.7 5.2 7.3 91 0.7 SW 15 20 8 11 1019.4 1020.0 4.8
25/07:30pm 9.2 4.8 7.2 87 1.0 SSW 20 28 11 15 1019.4 1020.0 4.8
25/07:00pm 9.8 6.4 7.7 87 1.0 SSW 15 19 8 10 1019.3 1019.9 4.8
25/06:30pm 9.9 5.5 7.5 85 1.2 S 20 26 11 14 1019.0 1019.5 4.8
25/06:00pm 10.0 7.6 8.6 91 0.7 WSW 11 15 6 8 1018.6 1019.2 4.8
25/05:30pm 10.2 6.6 8.3 88 1.0 SW 17 20 9 11 1018.1 1018.6 4.8
25/05:00pm 10.5 5.9 8.1 85 1.2 SSW 22 26 12 14 1017.8 1018.3 4.8
25/04:30pm 10.6 8.0 10.6 100 0.0 W 15 19 8 10 1017.5 1018.0 4.8
25/04:17pm 10.6 8.0 10.6 100 0.0 WNW 15 20 8 11 1017.3 1017.9 4.8
25/04:00pm 10.4 7.7 10.4 100 0.0 WNW 15 20 8 11 1017.2 1017.8 4.8
25/03:53pm 10.7 7.7 10.7 100 0.0 WNW 17 20 9 11 1017.2 1017.8 4.8
25/03:38pm 10.6 8.0 10.6 100 0.0 WNW 15 20 8 11 1017.2 1017.8 4.6
25/03:30pm 10.6 8.7 10.6 100 0.0 W 11 17 6 9 1017.2 1017.8 4.6
25/03:12pm 10.5 8.6 10.5 100 0.0 WSW 11 13 6 7 1017.2 1017.8 4.4
25/03:00pm 10.5 7.4 10.3 99 0.1 WSW 17 20 9 11 1017.1 1017.7 4.0
25/02:31pm 10.9 8.3 10.6 98 0.2 WSW 15 20 8 11 1016.9 1017.4 3.0
25/02:30pm 11.1 8.5 10.6 97 0.3 WSW 15 20 8 11 1016.9 1017.4 2.8
25/02:27pm 11.3 8.7 10.8 97 0.3 WSW 15 20 8 11 1016.9 1017.4 2.6
25/02:00pm 11.5 9.7 10.9 96 0.3 W 11 15 6 8 1016.8 1017.3 2.4
25/01:30pm 11.3 9.6 11.3 100 0.0 SW 11 15 6 8 1016.9 1017.4 2.4
25/01:24pm 11.1 9.0 11.1 100 0.0 SW 13 15 7 8 1017.0 1017.6 2.4
25/01:11pm 10.9 8.7 10.9 100 0.0 WSW 13 17 7 9 1017.1 1017.7 2.4
25/01:00pm 10.5 8.2 10.5 100 0.0 WSW 13 19 7 10 1017.1 1017.7 2.4
25/12:30pm 10.5 9.0 10.5 100 0.0 SW 9 11 5 6 1017.2 1017.8 2.2
25/12:26pm 10.2 8.6 10.2 100 0.0 WSW 9 13 5 7 1017.2 1017.8 2.2

Other Formats:

Comma delimited format used in spreadsheet applications
http://www.bom.gov.au/fwo/IDN60801/IDN60801.94729.axf

JavaScript Object Notation format (JSON) in row-major order
http://www.bom.gov.au/fwo/IDN60801/IDN60801.94729.json